createdAt,value
2019-06-08T00:02:02.947Z,13.20
2019-06-08T00:04:30.862Z,13.20
2019-06-08T00:06:58.420Z,13.30
2019-06-08T00:09:25.869Z,13.30
2019-06-08T00:11:53.652Z,13.40
2019-06-08T00:14:21.501Z,13.40
2019-06-08T00:16:49.004Z,13.40
2019-06-08T00:19:17.387Z,13.30
2019-06-08T00:21:45.031Z,13.30
2019-06-08T00:24:13.600Z,13.30
2019-06-08T00:26:41.475Z,13.20
2019-06-08T00:29:08.966Z,13.30
2019-06-08T00:31:36.400Z,13.30
2019-06-08T00:34:03.889Z,13.30
2019-06-08T00:36:31.401Z,13.30
2019-06-08T00:38:58.860Z,13.30
2019-06-08T00:41:26.323Z,13.30
2019-06-08T00:43:54.037Z,13.40
2019-06-08T00:46:21.549Z,13.40
2019-06-08T00:48:49.015Z,13.40
2019-06-08T00:51:16.764Z,13.40
2019-06-08T00:53:44.256Z,13.40
2019-06-08T00:56:11.683Z,13.40
2019-06-08T00:58:39.180Z,13.50
2019-06-08T01:01:07.586Z,13.40
2019-06-08T01:03:35.401Z,13.40
2019-06-08T01:06:02.881Z,13.40
2019-06-08T01:08:30.327Z,13.40
2019-06-08T01:10:57.914Z,13.40
2019-06-08T01:13:25.313Z,13.30
2019-06-08T01:15:52.808Z,13.30
2019-06-08T01:18:21.155Z,13.30
2019-06-08T01:20:49.642Z,13.30
2019-06-08T01:23:17.101Z,13.30
2019-06-08T01:25:44.558Z,13.40
2019-06-08T01:28:12.460Z,13.40
2019-06-08T01:30:39.891Z,13.40
2019-06-08T01:33:07.780Z,13.30
2019-06-08T01:35:35.331Z,13.40
2019-06-08T01:38:03.361Z,13.20
2019-06-08T01:40:31.546Z,13.30
2019-06-08T01:42:59.085Z,13.30
2019-06-08T01:45:30.104Z,13.30
2019-06-08T01:48:15.997Z,13.30
2019-06-08T01:50:32.776Z,13.30
2019-06-08T01:53:00.480Z,13.30
2019-06-08T01:55:28.981Z,13.30
2019-06-08T01:57:56.846Z,13.20
2019-06-08T02:00:39.401Z,13.20
2019-06-08T02:02:54.508Z,13.20
2019-06-08T02:05:23.985Z,13.10
2019-06-08T02:07:51.477Z,13.20
2019-06-08T02:10:20.966Z,13.20
2019-06-08T02:12:48.528Z,13.30
2019-06-08T02:15:17.038Z,13.30
2019-06-08T02:17:44.524Z,13.20
2019-06-08T02:20:12.896Z,13.20
2019-06-08T02:22:40.377Z,13.20
2019-06-08T02:25:09.744Z,13.20
2019-06-08T02:27:37.197Z,13.20
2019-06-08T02:30:07.714Z,13.20
2019-06-08T02:32:37.253Z,13.20
2019-06-08T02:35:04.695Z,13.30
2019-06-08T02:37:33.140Z,13.20
2019-06-08T02:40:00.693Z,13.20
2019-06-08T02:42:28.901Z,13.20
2019-06-08T02:44:57.583Z,13.20
2019-06-08T02:47:25.035Z,13.30
2019-06-08T02:49:52.495Z,13.30
2019-06-08T02:52:20.382Z,13.30
2019-06-08T02:54:49.026Z,13.30
2019-06-08T02:57:18.378Z,13.30
2019-06-08T02:59:47.979Z,13.20
2019-06-08T03:02:17.327Z,13.40
2019-06-08T03:04:46.984Z,13.30
2019-06-08T03:07:15.914Z,13.30
2019-06-08T03:09:45.200Z,13.40
2019-06-08T03:12:12.835Z,13.40
2019-06-08T03:14:43.965Z,13.30
2019-06-08T03:17:11.436Z,13.40
2019-06-08T03:19:39.979Z,13.40
2019-06-08T03:22:10.809Z,13.50
2019-06-08T03:24:38.707Z,13.40
2019-06-08T03:27:06.338Z,13.40
2019-06-08T03:29:34.949Z,13.50
2019-06-08T03:32:03.027Z,13.40
2019-06-08T03:34:30.522Z,13.40
2019-06-08T03:36:57.986Z,13.40
2019-06-08T03:39:25.475Z,13.40
2019-06-08T03:41:52.863Z,13.50
2019-06-08T03:44:20.296Z,13.40
2019-06-08T03:46:47.905Z,13.40
2019-06-08T03:49:15.320Z,13.50
2019-06-08T03:51:46.203Z,13.50
2019-06-08T03:54:12.082Z,13.50
2019-06-08T03:56:40.164Z,13.60
2019-06-08T03:59:08.117Z,13.60
2019-06-08T04:01:37.297Z,13.50
2019-06-08T04:04:05.701Z,13.60
2019-06-08T04:06:33.162Z,13.60
2019-06-08T04:09:00.671Z,13.60
2019-06-08T04:11:28.157Z,13.60
2019-06-08T04:13:55.798Z,13.50
2019-06-08T04:16:23.238Z,13.60
2019-06-08T04:18:50.753Z,13.50
2019-06-08T04:21:18.224Z,13.60
2019-06-08T04:23:47.081Z,13.60
2019-06-08T04:26:14.909Z,13.60
2019-06-08T04:28:42.551Z,13.60
2019-06-08T04:31:10.033Z,13.70
2019-06-08T04:33:37.908Z,13.70
2019-06-08T04:36:05.454Z,13.70
2019-06-08T04:38:32.948Z,13.70
2019-06-08T04:41:00.389Z,13.60
2019-06-08T04:43:27.848Z,13.70
2019-06-08T04:45:55.316Z,13.60
2019-06-08T04:48:22.792Z,13.70
2019-06-08T04:50:50.244Z,13.60
2019-06-08T04:53:17.745Z,13.60
2019-06-08T04:55:46.901Z,13.60
2019-06-08T04:58:14.780Z,13.70
2019-06-08T05:00:44.613Z,13.60
2019-06-08T05:03:11.521Z,13.70
2019-06-08T05:05:39.282Z,13.70
2019-06-08T05:08:07.141Z,13.80
2019-06-08T05:10:34.629Z,13.80
2019-06-08T05:13:02.070Z,13.80
2019-06-08T05:15:29.528Z,13.80
2019-06-08T05:17:56.998Z,13.80
2019-06-08T05:20:37.564Z,13.90
2019-06-08T05:22:53.749Z,14.00
2019-06-08T05:25:21.243Z,14.10
2019-06-08T05:27:49.593Z,14.10
2019-06-08T05:30:18.647Z,14.20
2019-06-08T05:32:47.544Z,14.20
2019-06-08T05:35:15.872Z,14.30
2019-06-08T05:37:43.657Z,14.30
2019-06-08T05:40:12.116Z,14.40
2019-06-08T05:42:41.987Z,14.50
2019-06-08T05:45:09.146Z,14.50
2019-06-08T05:47:36.623Z,14.50
2019-06-08T05:50:04.903Z,14.50
2019-06-08T05:52:32.391Z,14.50
2019-06-08T05:54:59.857Z,14.60
2019-06-08T05:57:27.607Z,14.50
2019-06-08T05:59:55.081Z,14.50
2019-06-08T06:02:22.568Z,14.40
2019-06-08T06:04:53.437Z,14.50
2019-06-08T06:07:19.350Z,14.60
2019-06-08T06:09:47.028Z,14.90
2019-06-08T06:12:14.561Z,15.00
2019-06-08T06:14:42.789Z,15.20
2019-06-08T06:17:10.287Z,15.40
2019-06-08T06:19:37.768Z,15.80
2019-06-08T06:22:05.296Z,15.40
2019-06-08T06:24:32.947Z,15.40
2019-06-08T06:27:00.368Z,15.60
2019-06-08T06:29:27.896Z,15.70
2019-06-08T06:31:55.322Z,15.90
2019-06-08T06:34:22.836Z,15.60
2019-06-08T06:36:50.327Z,15.50
2019-06-08T06:39:17.812Z,15.70
2019-06-08T06:41:45.971Z,15.70
2019-06-08T06:44:13.461Z,15.80
2019-06-08T06:46:41.862Z,15.80
2019-06-08T06:49:09.614Z,15.40
2019-06-08T06:51:37.178Z,15.60
2019-06-08T06:54:04.703Z,15.50
2019-06-08T06:56:32.136Z,15.50
2019-06-08T06:58:59.621Z,15.70
2019-06-08T07:01:27.091Z,15.60
2019-06-08T07:03:54.574Z,15.50
2019-06-08T07:06:22.124Z,15.40
2019-06-08T07:08:50.326Z,15.30
2019-06-08T07:11:17.895Z,15.30
2019-06-08T07:13:46.561Z,15.20
2019-06-08T07:16:18.650Z,15.40
2019-06-08T07:18:43.363Z,15.30
2019-06-08T07:21:10.867Z,15.20
2019-06-08T07:23:38.341Z,15.60
2019-06-08T07:26:05.786Z,16.00
2019-06-08T07:28:33.288Z,16.20
2019-06-08T07:31:00.735Z,15.90
2019-06-08T07:33:28.195Z,16.00
2019-06-08T07:35:55.690Z,16.20
2019-06-08T07:38:23.150Z,16.40
2019-06-08T07:40:51.918Z,16.40
2019-06-08T07:43:19.414Z,16.60
2019-06-08T07:46:06.329Z,16.90
2019-06-08T07:48:33.789Z,17.30
2019-06-08T07:51:01.227Z,16.90
2019-06-08T07:53:28.736Z,16.50
2019-06-08T07:55:56.371Z,16.50
2019-06-08T07:58:23.848Z,16.60
2019-06-08T08:00:52.973Z,16.30
2019-06-08T08:03:20.604Z,16.50
2019-06-08T08:05:48.215Z,17.30
2019-06-08T08:08:15.650Z,17.30
2019-06-08T08:10:43.200Z,17.80
2019-06-08T08:13:10.662Z,17.60
2019-06-08T08:15:38.152Z,17.70
2019-06-08T08:18:05.654Z,17.70
2019-06-08T08:20:33.083Z,18.00
2019-06-08T08:23:05.588Z,17.80
2019-06-08T08:25:29.800Z,18.00
2019-06-08T08:27:59.153Z,17.70
2019-06-08T08:30:28.427Z,17.70
2019-06-08T08:32:57.125Z,17.80
2019-06-08T08:35:25.176Z,18.00
2019-06-08T08:37:56.306Z,18.00
2019-06-08T08:40:22.480Z,18.10
2019-06-08T08:42:51.054Z,18.30
2019-06-08T08:45:19.464Z,18.60
2019-06-08T08:47:48.505Z,18.40
2019-06-08T08:50:18.400Z,18.30
2019-06-08T08:52:47.711Z,19.10
2019-06-08T08:55:17.946Z,19.10
2019-06-08T08:57:44.508Z,19.30
2019-06-08T09:00:12.538Z,18.90
2019-06-08T09:02:40.008Z,18.80
2019-06-08T09:05:08.613Z,18.90
2019-06-08T09:07:38.229Z,18.70
2019-06-08T09:10:08.648Z,19.20
2019-06-08T09:12:37.505Z,19.30
2019-06-08T09:15:04.439Z,19.20
2019-06-08T09:17:31.869Z,19.30
2019-06-08T09:20:03.283Z,20.30
2019-06-08T09:22:31.194Z,20.30
2019-06-08T09:25:01.208Z,20.50
2019-06-08T09:27:28.108Z,20.10
2019-06-08T09:29:57.459Z,19.70
2019-06-08T09:32:24.750Z,19.40
2019-06-08T09:34:53.409Z,19.20
2019-06-08T09:37:21.513Z,19.80
2019-06-08T09:39:48.968Z,19.80
2019-06-08T09:42:20.882Z,19.30
2019-06-08T09:44:48.108Z,18.60
2019-06-08T09:47:14.965Z,19.60
2019-06-08T09:49:42.419Z,20.20
2019-06-08T09:52:10.135Z,19.20
2019-06-08T09:54:38.519Z,18.70
2019-06-08T09:57:08.507Z,18.20
2019-06-08T09:59:35.376Z,18.50
2019-06-08T10:02:06.446Z,18.90
2019-06-08T10:04:32.229Z,19.80
2019-06-08T10:07:00.623Z,20.00
2019-06-08T10:09:28.880Z,20.40
2019-06-08T10:11:58.992Z,20.30
2019-06-08T10:14:28.070Z,20.60
2019-06-08T10:16:56.234Z,21.10
2019-06-08T10:19:24.128Z,20.60
2019-06-08T10:21:51.539Z,20.30
2019-06-08T10:24:18.997Z,20.30
2019-06-08T10:26:47.751Z,19.80
2019-06-08T10:29:18.248Z,19.50
2019-06-08T10:31:44.704Z,20.10
2019-06-08T10:34:12.251Z,20.40
2019-06-08T10:36:40.060Z,20.30
2019-06-08T10:39:11.456Z,19.80
2019-06-08T10:41:38.786Z,19.90
2019-06-08T10:44:11.209Z,20.50
2019-06-08T10:46:35.271Z,20.80
2019-06-08T10:49:04.165Z,21.10
2019-06-08T10:51:31.809Z,20.60
2019-06-08T10:53:59.959Z,20.20
2019-06-08T10:56:28.374Z,20.30
2019-06-08T10:58:58.045Z,20.60
2019-06-08T11:01:28.139Z,21.00
2019-06-08T11:03:55.106Z,21.30
2019-06-08T11:06:22.596Z,21.80
2019-06-08T11:08:50.059Z,21.80
2019-06-08T11:11:20.010Z,21.60
2019-06-08T11:13:50.155Z,21.40
2019-06-08T11:16:17.975Z,21.80
2019-06-08T11:18:45.253Z,21.50
2019-06-08T11:21:13.063Z,21.60
2019-06-08T11:23:41.654Z,21.30
2019-06-08T11:26:18.957Z,21.20
2019-06-08T11:28:38.466Z,21.20
2019-06-08T11:31:08.503Z,21.50
2019-06-08T11:33:35.182Z,22.20
2019-06-08T11:36:06.136Z,21.20
2019-06-08T11:38:31.885Z,21.00
2019-06-08T11:41:00.981Z,20.50
2019-06-08T11:43:28.860Z,20.80
2019-06-08T11:45:58.257Z,21.00
2019-06-08T11:48:28.385Z,21.10
2019-06-08T11:50:54.906Z,20.40
2019-06-08T11:53:22.368Z,21.10
2019-06-08T11:55:51.108Z,22.00
2019-06-08T11:58:22.948Z,21.50
2019-06-08T12:00:55.183Z,20.80
2019-06-08T12:03:22.874Z,21.80
2019-06-08T12:05:50.824Z,22.00
2019-06-08T12:08:20.887Z,22.20
2019-06-08T12:10:49.060Z,22.00
2019-06-08T12:13:17.664Z,23.50
2019-06-08T12:15:45.708Z,24.00
2019-06-08T12:18:14.159Z,23.70
2019-06-08T12:20:41.812Z,22.70
2019-06-08T12:23:10.008Z,21.80
2019-06-08T12:25:37.876Z,22.50
2019-06-08T12:28:06.451Z,23.80
2019-06-08T12:30:34.213Z,23.40
2019-06-08T12:33:01.698Z,23.10
2019-06-08T12:35:29.178Z,22.80
2019-06-08T12:37:58.134Z,22.50
2019-06-08T12:40:28.094Z,23.20
2019-06-08T12:42:59.460Z,23.40
2019-06-08T12:45:24.750Z,23.00
2019-06-08T12:47:52.252Z,22.60
2019-06-08T12:50:20.073Z,23.70
2019-06-08T12:52:47.888Z,23.90
2019-06-08T12:55:22.132Z,23.50
2019-06-08T12:57:44.686Z,23.20
2019-06-08T13:00:13.214Z,24.10
2019-06-08T13:02:40.739Z,23.70
2019-06-08T13:05:11.925Z,23.70
2019-06-08T13:07:38.532Z,23.50
2019-06-08T13:10:07.079Z,24.20
2019-06-08T13:12:34.677Z,25.30
2019-06-08T13:15:02.595Z,24.00
2019-06-08T13:17:30.412Z,24.50
2019-06-08T13:19:58.252Z,24.50
2019-06-08T13:22:29.001Z,23.30
2019-06-08T13:24:56.227Z,22.80
2019-06-08T13:27:25.038Z,23.60
2019-06-08T13:29:52.905Z,23.40
2019-06-08T13:32:22.504Z,24.00
2019-06-08T13:34:50.787Z,25.10
2019-06-08T13:37:19.382Z,26.30
2019-06-08T13:39:48.908Z,25.60
2019-06-08T13:42:18.448Z,24.80
2019-06-08T13:44:47.484Z,25.40
2019-06-08T13:47:16.532Z,24.70
2019-06-08T13:49:44.681Z,23.70
2019-06-08T13:52:13.539Z,23.40
2019-06-08T13:54:41.622Z,23.20
2019-06-08T13:57:09.423Z,24.40
2019-06-08T13:59:38.934Z,24.50
2019-06-08T14:02:06.237Z,24.40
2019-06-08T14:04:34.152Z,24.70
2019-06-08T14:07:01.924Z,25.30
2019-06-08T14:09:31.624Z,26.70
2019-06-08T14:11:59.360Z,26.00
2019-06-08T14:14:29.026Z,26.10
2019-06-08T14:16:58.445Z,25.40
2019-06-08T14:19:26.255Z,25.60
2019-06-08T14:21:55.009Z,25.70
2019-06-08T14:24:27.450Z,25.00
2019-06-08T14:26:51.870Z,25.60
2019-06-08T14:29:21.411Z,25.60
2019-06-08T14:31:49.115Z,25.70
2019-06-08T14:34:18.638Z,25.40
2019-06-08T14:36:45.846Z,24.30
2019-06-08T14:39:13.349Z,25.60
2019-06-08T14:41:40.808Z,26.30
2019-06-08T14:44:08.653Z,25.90
2019-06-08T14:46:40.812Z,26.50
2019-06-08T14:49:05.432Z,25.60
2019-06-08T14:51:48.890Z,26.60
2019-06-08T14:54:20.525Z,26.50
2019-06-08T14:56:46.401Z,27.00
2019-06-08T14:59:14.093Z,27.00
2019-06-08T15:01:41.572Z,26.50
2019-06-08T15:04:09.053Z,26.00
2019-06-08T15:06:38.208Z,24.80
2019-06-08T15:09:08.522Z,24.90
2019-06-08T15:11:35.379Z,25.50
2019-06-08T15:14:02.842Z,25.80
2019-06-08T15:16:32.729Z,24.70
2019-06-08T15:19:00.325Z,25.70
2019-06-08T15:21:31.573Z,25.20
2019-06-08T15:23:58.121Z,26.20
2019-06-08T15:26:32.786Z,25.50
2019-06-08T15:28:54.894Z,25.50
2019-06-08T15:31:23.058Z,25.20
2019-06-08T15:33:50.960Z,25.30
2019-06-08T15:36:20.884Z,25.90
2019-06-08T15:38:48.138Z,26.20
2019-06-08T15:41:18.138Z,26.40
2019-06-08T15:43:47.958Z,26.50
2019-06-08T15:46:14.579Z,25.90
2019-06-08T15:48:42.481Z,26.00
2019-06-08T15:51:09.931Z,26.30
2019-06-08T15:53:37.830Z,25.30
2019-06-08T15:56:08.382Z,25.20
2019-06-08T15:58:40.224Z,25.30
2019-06-08T16:01:05.300Z,26.80
2019-06-08T16:03:33.606Z,27.70
2019-06-08T16:06:01.105Z,26.90
2019-06-08T16:08:30.220Z,26.50
2019-06-08T16:10:57.740Z,25.10
2019-06-08T16:13:26.695Z,24.70
2019-06-08T16:15:54.311Z,25.10
2019-06-08T16:18:21.820Z,25.90
2019-06-08T16:20:49.315Z,25.30
2019-06-08T16:23:16.922Z,24.10
2019-06-08T16:25:44.597Z,23.90
2019-06-08T16:28:12.085Z,24.90
2019-06-08T16:30:40.246Z,25.00
2019-06-08T16:33:07.717Z,25.50
2019-06-08T16:35:35.742Z,26.30
2019-06-08T16:38:03.419Z,25.70
2019-06-08T16:40:32.009Z,26.10
2019-06-08T16:42:59.588Z,25.50
2019-06-08T16:45:27.101Z,26.30
2019-06-08T16:47:54.742Z,27.00
2019-06-08T16:50:24.733Z,26.70
2019-06-08T16:52:51.878Z,26.60
2019-06-08T16:55:19.312Z,26.20
2019-06-08T16:57:47.122Z,26.00
2019-06-08T17:00:30.751Z,25.60
2019-06-08T17:02:44.928Z,25.90
2019-06-08T17:05:12.370Z,27.00
2019-06-08T17:07:39.874Z,25.50
2019-06-08T17:10:07.529Z,25.30
2019-06-08T17:12:34.954Z,25.10
2019-06-08T17:15:03.754Z,25.00
2019-06-08T17:17:32.097Z,25.90
2019-06-08T17:19:59.675Z,24.60
2019-06-08T17:22:27.206Z,24.60
2019-06-08T17:24:54.722Z,24.70
2019-06-08T17:27:26.891Z,25.60
2019-06-08T17:29:51.454Z,25.20
2019-06-08T17:32:18.966Z,25.30
2019-06-08T17:34:46.901Z,24.90
2019-06-08T17:37:14.363Z,25.60
2019-06-08T17:39:42.246Z,25.60
2019-06-08T17:42:10.211Z,25.30
2019-06-08T17:44:38.302Z,25.70
2019-06-08T17:47:05.864Z,26.40
2019-06-08T17:49:34.462Z,25.70
2019-06-08T17:52:02.051Z,26.20
2019-06-08T17:54:29.527Z,25.30
2019-06-08T17:56:57.036Z,24.70
2019-06-08T17:59:24.560Z,24.30
2019-06-08T18:01:52.036Z,24.10
2019-06-08T18:04:19.548Z,23.60
2019-06-08T18:06:47.408Z,22.80
2019-06-08T18:09:17.333Z,22.10
2019-06-08T18:11:45.211Z,21.70
2019-06-08T18:14:14.080Z,21.40
2019-06-08T18:16:43.477Z,21.30
2019-06-08T18:19:28.481Z,21.10
2019-06-08T18:22:02.932Z,21.00
2019-06-08T18:24:28.007Z,20.80
2019-06-08T18:26:58.235Z,20.50
2019-06-08T18:29:27.672Z,20.30
2019-06-08T18:31:57.920Z,20.40
2019-06-08T18:34:24.657Z,20.20
2019-06-08T18:36:52.303Z,20.20
2019-06-08T18:39:20.232Z,20.20
2019-06-08T18:41:48.404Z,20.10
2019-06-08T18:44:17.405Z,19.90
2019-06-08T18:46:45.347Z,19.90
2019-06-08T18:49:12.800Z,19.80
2019-06-08T18:51:42.273Z,19.70
2019-06-08T18:54:14.645Z,19.60
2019-06-08T18:56:41.887Z,19.60
2019-06-08T18:59:08.083Z,19.50
2019-06-08T19:01:37.895Z,19.40
2019-06-08T19:04:07.505Z,19.40
2019-06-08T19:06:37.401Z,19.30
2019-06-08T19:09:07.607Z,19.20
2019-06-08T19:11:37.189Z,19.10
2019-06-08T19:14:05.395Z,19.10
2019-06-08T19:16:32.845Z,19.00
2019-06-08T19:19:00.293Z,18.90
2019-06-08T19:21:28.354Z,18.80
2019-06-08T19:23:55.967Z,18.80
2019-06-08T19:26:23.410Z,18.70
2019-06-08T19:28:54.048Z,18.50
2019-06-08T19:31:20.311Z,18.40
2019-06-08T19:33:51.317Z,18.30
2019-06-08T19:36:17.230Z,18.20
2019-06-08T19:38:48.043Z,18.00
2019-06-08T19:41:14.066Z,18.00
2019-06-08T19:43:43.263Z,17.90
2019-06-08T19:46:10.870Z,17.80
2019-06-08T19:48:39.632Z,17.80
2019-06-08T19:51:07.764Z,17.70
2019-06-08T19:53:42.143Z,17.70
2019-06-08T19:56:04.554Z,17.60
2019-06-08T19:58:32.005Z,17.40
2019-06-08T20:00:59.429Z,17.30
2019-06-08T20:03:27.570Z,17.30
2019-06-08T20:05:55.058Z,17.40
2019-06-08T20:08:22.545Z,17.20
2019-06-08T20:10:50.803Z,17.20
2019-06-08T20:13:18.376Z,17.00
2019-06-08T20:15:52.341Z,16.90
2019-06-08T20:18:17.076Z,17.00
2019-06-08T20:20:44.412Z,16.90
2019-06-08T20:23:11.917Z,16.80
2019-06-08T20:25:39.442Z,16.80
2019-06-08T20:28:07.901Z,16.70
2019-06-08T20:30:35.863Z,16.60
2019-06-08T20:33:03.400Z,16.50
2019-06-08T20:35:30.856Z,16.40
2019-06-08T20:37:58.343Z,16.40
2019-06-08T20:40:27.953Z,16.30
2019-06-08T20:42:57.566Z,16.20
2019-06-08T20:45:24.439Z,16.10
2019-06-08T20:47:53.744Z,16.20
2019-06-08T20:50:21.278Z,16.00
2019-06-08T20:52:49.677Z,15.90
2019-06-08T20:55:18.079Z,15.80
2019-06-08T20:57:58.005Z,15.70
2019-06-08T21:00:25.476Z,14.20
2019-06-08T21:03:12.715Z,15.60
2019-06-08T21:05:40.265Z,14.50
2019-06-08T21:08:08.345Z,15.50
2019-06-08T21:10:37.763Z,15.40
2019-06-08T21:13:07.259Z,15.30
2019-06-08T21:15:34.633Z,15.30
2019-06-08T21:18:02.113Z,15.30
2019-06-08T21:20:29.609Z,15.20
2019-06-08T21:22:59.722Z,15.20
2019-06-08T21:25:28.125Z,15.10
2019-06-08T21:27:58.215Z,15.00
2019-06-08T21:30:25.029Z,14.90
2019-06-08T21:32:54.538Z,14.80
2019-06-08T21:35:21.838Z,14.80
2019-06-08T21:37:52.544Z,14.70
2019-06-08T21:40:18.634Z,14.70
2019-06-08T21:42:48.818Z,14.60
2019-06-08T21:45:15.511Z,14.50
2019-06-08T21:47:42.990Z,14.50
2019-06-08T21:50:10.554Z,14.40
2019-06-08T21:52:38.045Z,14.30
2019-06-08T21:55:07.305Z,14.20
2019-06-08T21:57:36.958Z,14.10
2019-06-08T22:00:22.879Z,14.10
2019-06-08T22:02:37.571Z,14.00
2019-06-08T22:05:05.307Z,14.00
2019-06-08T22:07:32.803Z,14.00
2019-06-08T22:10:00.502Z,14.00
2019-06-08T22:12:28.107Z,14.00
2019-06-08T22:14:57.296Z,13.90
2019-06-08T22:17:27.603Z,13.90
2019-06-08T22:19:55.036Z,13.90
2019-06-08T22:22:22.658Z,13.80
2019-06-08T22:24:51.821Z,13.80
2019-06-08T22:27:19.474Z,13.70
2019-06-08T22:29:48.450Z,13.70
2019-06-08T22:32:17.917Z,13.60
2019-06-08T22:34:47.537Z,13.50
2019-06-08T22:37:14.569Z,13.50
2019-06-08T22:39:42.033Z,13.50
2019-06-08T22:42:09.548Z,13.50
2019-06-08T22:44:37.515Z,13.40
2019-06-08T22:47:07.913Z,13.30
2019-06-08T22:49:34.537Z,13.30
2019-06-08T22:52:03.055Z,13.20
2019-06-08T22:54:31.259Z,13.20
2019-06-08T22:57:01.373Z,13.10
2019-06-08T22:59:28.035Z,13.20
2019-06-08T23:01:56.537Z,13.10
2019-06-08T23:04:24.848Z,13.00
2019-06-08T23:06:52.383Z,12.90
2019-06-08T23:09:20.227Z,12.80
2019-06-08T23:11:47.703Z,12.70
2019-06-08T23:14:15.192Z,12.70
2019-06-08T23:16:42.749Z,12.40
2019-06-08T23:19:10.288Z,12.50
2019-06-08T23:21:38.314Z,12.50
2019-06-08T23:24:08.392Z,12.40
2019-06-08T23:26:37.226Z,12.30
2019-06-08T23:29:07.211Z,12.30
2019-06-08T23:31:34.114Z,12.30
2019-06-08T23:34:03.946Z,12.40
2019-06-08T23:36:46.757Z,12.50
2019-06-08T23:39:01.074Z,12.50
2019-06-08T23:41:28.584Z,12.50
2019-06-08T23:43:57.373Z,12.50
2019-06-08T23:46:27.232Z,12.50
2019-06-08T23:48:54.344Z,12.40
2019-06-08T23:51:21.818Z,12.40
2019-06-08T23:53:49.315Z,12.40
2019-06-08T23:56:18.358Z,12.40
2019-06-08T23:58:48.307Z,12.30
